sensor_id;sensor_type;location;lat;lon;timestamp;P1;durP1;ratioP1;P2;durP2;ratioP2
55728;SDS011;41633;39.720;2.910;2023-03-01T00:00:05;16.15;;;4.40;;
55728;SDS011;41633;39.720;2.910;2023-03-01T00:02:32;14.27;;;4.82;;
55728;SDS011;41633;39.720;2.910;2023-03-01T00:04:58;13.98;;;4.88;;
55728;SDS011;41633;39.720;2.910;2023-03-01T00:07:24;15.00;;;4.97;;
55728;SDS011;41633;39.720;2.910;2023-03-01T00:09:50;15.18;;;5.38;;
55728;SDS011;41633;39.720;2.910;2023-03-01T00:12:16;16.60;;;5.10;;
55728;SDS011;41633;39.720;2.910;2023-03-01T00:14:42;13.60;;;4.93;;
55728;SDS011;41633;39.720;2.910;2023-03-01T00:17:09;15.80;;;5.35;;
55728;SDS011;41633;39.720;2.910;2023-03-01T00:19:35;14.98;;;4.70;;
55728;SDS011;41633;39.720;2.910;2023-03-01T00:22:02;17.10;;;4.43;;
55728;SDS011;41633;39.720;2.910;2023-03-01T00:24:28;20.80;;;4.80;;
55728;SDS011;41633;39.720;2.910;2023-03-01T00:26:55;19.95;;;5.15;;
55728;SDS011;41633;39.720;2.910;2023-03-01T00:29:22;18.08;;;4.60;;
55728;SDS011;41633;39.720;2.910;2023-03-01T00:31:48;14.68;;;4.88;;
55728;SDS011;41633;39.720;2.910;2023-03-01T00:34:14;22.95;;;5.53;;
55728;SDS011;41633;39.720;2.910;2023-03-01T00:36:41;18.92;;;4.75;;
55728;SDS011;41633;39.720;2.910;2023-03-01T00:39:09;19.45;;;4.93;;
55728;SDS011;41633;39.720;2.910;2023-03-01T00:44:41;13.80;;;4.30;;
55728;SDS011;41633;39.720;2.910;2023-03-01T00:47:08;16.15;;;4.50;;
55728;SDS011;41633;39.720;2.910;2023-03-01T00:49:34;15.38;;;4.88;;
55728;SDS011;41633;39.720;2.910;2023-03-01T00:52:00;14.85;;;4.43;;
55728;SDS011;41633;39.720;2.910;2023-03-01T00:54:27;15.63;;;4.90;;
55728;SDS011;41633;39.720;2.910;2023-03-01T00:56:53;19.13;;;4.57;;
55728;SDS011;41633;39.720;2.910;2023-03-01T00:59:19;16.33;;;4.78;;
55728;SDS011;41633;39.720;2.910;2023-03-01T01:01:45;18.88;;;4.47;;
55728;SDS011;41633;39.720;2.910;2023-03-01T01:04:12;20.58;;;4.93;;
55728;SDS011;41633;39.720;2.910;2023-03-01T01:06:40;14.35;;;4.75;;
55728;SDS011;41633;39.720;2.910;2023-03-01T01:09:10;15.93;;;5.18;;
55728;SDS011;41633;39.720;2.910;2023-03-01T01:11:42;15.95;;;5.07;;
55728;SDS011;41633;39.720;2.910;2023-03-01T01:14:08;18.10;;;5.15;;
55728;SDS011;41633;39.720;2.910;2023-03-01T01:16:34;14.43;;;4.30;;
55728;SDS011;41633;39.720;2.910;2023-03-01T01:19:01;18.42;;;5.10;;
55728;SDS011;41633;39.720;2.910;2023-03-01T01:21:27;17.38;;;5.00;;
55728;SDS011;41633;39.720;2.910;2023-03-01T01:23:53;16.63;;;4.50;;
55728;SDS011;41633;39.720;2.910;2023-03-01T01:26:24;16.00;;;4.30;;
55728;SDS011;41633;39.720;2.910;2023-03-01T01:28:51;19.65;;;5.72;;
55728;SDS011;41633;39.720;2.910;2023-03-01T01:31:17;15.95;;;5.35;;
55728;SDS011;41633;39.720;2.910;2023-03-01T01:33:44;16.38;;;4.97;;
55728;SDS011;41633;39.720;2.910;2023-03-01T01:36:10;14.65;;;5.32;;
55728;SDS011;41633;39.720;2.910;2023-03-01T01:38:37;19.80;;;5.18;;
55728;SDS011;41633;39.720;2.910;2023-03-01T01:41:03;20.83;;;5.22;;
55728;SDS011;41633;39.720;2.910;2023-03-01T01:43:31;18.75;;;4.80;;
55728;SDS011;41633;39.720;2.910;2023-03-01T01:45:59;15.52;;;4.90;;
55728;SDS011;41633;39.720;2.910;2023-03-01T01:48:28;17.10;;;4.63;;
55728;SDS011;41633;39.720;2.910;2023-03-01T01:51:05;19.98;;;5.63;;
55728;SDS011;41633;39.720;2.910;2023-03-01T01:53:32;19.92;;;5.97;;
55728;SDS011;41633;39.720;2.910;2023-03-01T01:55:59;18.25;;;5.63;;
55728;SDS011;41633;39.720;2.910;2023-03-01T01:58:27;16.25;;;4.93;;
55728;SDS011;41633;39.720;2.910;2023-03-01T02:00:55;18.73;;;5.65;;
55728;SDS011;41633;39.720;2.910;2023-03-01T02:05:53;21.75;;;6.25;;
55728;SDS011;41633;39.720;2.910;2023-03-01T02:08:22;22.08;;;5.18;;
55728;SDS011;41633;39.720;2.910;2023-03-01T02:10:49;20.33;;;4.88;;
55728;SDS011;41633;39.720;2.910;2023-03-01T02:13:16;18.77;;;4.80;;
55728;SDS011;41633;39.720;2.910;2023-03-01T02:15:42;18.73;;;4.95;;
55728;SDS011;41633;39.720;2.910;2023-03-01T02:18:12;21.77;;;5.10;;
55728;SDS011;41633;39.720;2.910;2023-03-01T02:23:06;18.60;;;5.00;;
55728;SDS011;41633;39.720;2.910;2023-03-01T02:28:10;19.13;;;5.10;;
55728;SDS011;41633;39.720;2.910;2023-03-01T02:30:38;19.27;;;4.82;;
55728;SDS011;41633;39.720;2.910;2023-03-01T02:33:25;17.65;;;4.80;;
55728;SDS011;41633;39.720;2.910;2023-03-01T02:35:51;17.33;;;4.82;;
55728;SDS011;41633;39.720;2.910;2023-03-01T02:38:18;20.75;;;5.60;;
55728;SDS011;41633;39.720;2.910;2023-03-01T02:40:45;18.00;;;5.82;;
55728;SDS011;41633;39.720;2.910;2023-03-01T02:43:11;20.35;;;5.78;;
55728;SDS011;41633;39.720;2.910;2023-03-01T02:45:42;20.08;;;5.10;;
55728;SDS011;41633;39.720;2.910;2023-03-01T02:48:09;21.50;;;5.15;;
55728;SDS011;41633;39.720;2.910;2023-03-01T02:53:23;21.73;;;5.82;;
55728;SDS011;41633;39.720;2.910;2023-03-01T02:55:51;23.23;;;6.38;;
55728;SDS011;41633;39.720;2.910;2023-03-01T02:58:17;22.77;;;5.82;;
55728;SDS011;41633;39.720;2.910;2023-03-01T03:00:43;21.95;;;6.70;;
55728;SDS011;41633;39.720;2.910;2023-03-01T03:03:17;22.50;;;7.47;;
55728;SDS011;41633;39.720;2.910;2023-03-01T03:05:45;34.58;;;14.20;;
55728;SDS011;41633;39.720;2.910;2023-03-01T03:08:11;29.00;;;11.82;;
55728;SDS011;41633;39.720;2.910;2023-03-01T03:10:38;27.52;;;10.27;;
55728;SDS011;41633;39.720;2.910;2023-03-01T03:13:06;29.95;;;10.45;;
55728;SDS011;41633;39.720;2.910;2023-03-01T03:15:33;34.42;;;11.63;;
55728;SDS011;41633;39.720;2.910;2023-03-01T03:18:01;26.35;;;9.02;;
55728;SDS011;41633;39.720;2.910;2023-03-01T03:20:27;24.15;;;7.95;;
55728;SDS011;41633;39.720;2.910;2023-03-01T03:22:54;24.88;;;7.15;;
55728;SDS011;41633;39.720;2.910;2023-03-01T03:25:21;20.30;;;5.95;;
55728;SDS011;41633;39.720;2.910;2023-03-01T03:27:48;23.92;;;6.85;;
55728;SDS011;41633;39.720;2.910;2023-03-01T03:30:16;23.27;;;5.93;;
55728;SDS011;41633;39.720;2.910;2023-03-01T03:32:43;24.38;;;6.53;;
55728;SDS011;41633;39.720;2.910;2023-03-01T03:35:29;26.73;;;6.70;;
55728;SDS011;41633;39.720;2.910;2023-03-01T03:40:29;28.73;;;7.65;;
55728;SDS011;41633;39.720;2.910;2023-03-01T03:42:56;24.08;;;7.88;;
55728;SDS011;41633;39.720;2.910;2023-03-01T03:47:48;28.80;;;8.85;;
55728;SDS011;41633;39.720;2.910;2023-03-01T03:50:15;25.02;;;9.02;;
55728;SDS011;41633;39.720;2.910;2023-03-01T03:52:42;27.42;;;9.00;;
55728;SDS011;41633;39.720;2.910;2023-03-01T03:55:09;22.83;;;8.93;;
55728;SDS011;41633;39.720;2.910;2023-03-01T03:57:35;31.08;;;9.35;;
55728;SDS011;41633;39.720;2.910;2023-03-01T04:00:02;20.65;;;7.93;;
55728;SDS011;41633;39.720;2.910;2023-03-01T04:02:38;23.63;;;8.20;;
55728;SDS011;41633;39.720;2.910;2023-03-01T04:05:04;21.05;;;7.43;;
55728;SDS011;41633;39.720;2.910;2023-03-01T04:07:31;18.52;;;6.95;;
55728;SDS011;41633;39.720;2.910;2023-03-01T04:09:57;23.15;;;7.15;;
55728;SDS011;41633;39.720;2.910;2023-03-01T04:12:23;23.52;;;6.57;;
55728;SDS011;41633;39.720;2.910;2023-03-01T04:14:49;20.90;;;6.75;;
55728;SDS011;41633;39.720;2.910;2023-03-01T04:17:15;21.13;;;6.25;;
55728;SDS011;41633;39.720;2.910;2023-03-01T04:19:42;18.08;;;5.45;;
55728;SDS011;41633;39.720;2.910;2023-03-01T04:22:09;19.58;;;5.45;;
55728;SDS011;41633;39.720;2.910;2023-03-01T04:24:36;20.50;;;5.22;;
55728;SDS011;41633;39.720;2.910;2023-03-01T04:29:29;18.38;;;5.47;;
55728;SDS011;41633;39.720;2.910;2023-03-01T04:31:55;25.77;;;5.95;;
55728;SDS011;41633;39.720;2.910;2023-03-01T04:34:21;16.00;;;5.03;;
55728;SDS011;41633;39.720;2.910;2023-03-01T04:36:47;18.80;;;5.00;;
55728;SDS011;41633;39.720;2.910;2023-03-01T04:39:17;15.93;;;4.75;;
55728;SDS011;41633;39.720;2.910;2023-03-01T04:41:43;19.10;;;5.65;;
55728;SDS011;41633;39.720;2.910;2023-03-01T04:44:09;15.23;;;4.55;;
55728;SDS011;41633;39.720;2.910;2023-03-01T04:46:36;16.33;;;4.35;;
55728;SDS011;41633;39.720;2.910;2023-03-01T04:49:02;17.38;;;4.38;;
55728;SDS011;41633;39.720;2.910;2023-03-01T04:53:54;17.27;;;5.50;;
55728;SDS011;41633;39.720;2.910;2023-03-01T04:56:21;16.45;;;5.70;;
55728;SDS011;41633;39.720;2.910;2023-03-01T04:58:48;17.75;;;5.53;;
55728;SDS011;41633;39.720;2.910;2023-03-01T05:01:15;19.38;;;5.80;;
55728;SDS011;41633;39.720;2.910;2023-03-01T05:03:43;19.40;;;5.20;;
55728;SDS011;41633;39.720;2.910;2023-03-01T05:06:09;22.10;;;5.00;;
55728;SDS011;41633;39.720;2.910;2023-03-01T05:08:36;18.10;;;5.75;;
55728;SDS011;41633;39.720;2.910;2023-03-01T05:11:02;21.42;;;5.60;;
55728;SDS011;41633;39.720;2.910;2023-03-01T05:13:28;17.27;;;5.68;;
55728;SDS011;41633;39.720;2.910;2023-03-01T05:15:55;20.88;;;5.60;;
55728;SDS011;41633;39.720;2.910;2023-03-01T05:18:22;20.38;;;5.35;;
55728;SDS011;41633;39.720;2.910;2023-03-01T05:20:51;17.10;;;5.18;;
55728;SDS011;41633;39.720;2.910;2023-03-01T05:23:17;19.90;;;4.97;;
55728;SDS011;41633;39.720;2.910;2023-03-01T05:25:43;17.55;;;5.15;;
55728;SDS011;41633;39.720;2.910;2023-03-01T05:28:12;14.20;;;4.53;;
55728;SDS011;41633;39.720;2.910;2023-03-01T05:30:39;18.55;;;4.85;;
55728;SDS011;41633;39.720;2.910;2023-03-01T05:33:05;21.05;;;6.00;;
55728;SDS011;41633;39.720;2.910;2023-03-01T05:35:35;20.05;;;5.40;;
55728;SDS011;41633;39.720;2.910;2023-03-01T05:38:01;19.95;;;6.03;;
55728;SDS011;41633;39.720;2.910;2023-03-01T05:40:28;12.98;;;5.18;;
55728;SDS011;41633;39.720;2.910;2023-03-01T05:42:55;17.63;;;6.00;;
55728;SDS011;41633;39.720;2.910;2023-03-01T05:45:25;17.08;;;6.43;;
55728;SDS011;41633;39.720;2.910;2023-03-01T05:47:52;17.55;;;6.05;;
55728;SDS011;41633;39.720;2.910;2023-03-01T05:50:23;18.90;;;6.30;;
55728;SDS011;41633;39.720;2.910;2023-03-01T05:52:51;23.80;;;7.30;;
55728;SDS011;41633;39.720;2.910;2023-03-01T05:55:19;23.27;;;6.30;;
55728;SDS011;41633;39.720;2.910;2023-03-01T05:57:46;15.95;;;6.28;;
55728;SDS011;41633;39.720;2.910;2023-03-01T06:00:13;19.30;;;6.00;;
55728;SDS011;41633;39.720;2.910;2023-03-01T06:02:40;17.65;;;5.47;;
55728;SDS011;41633;39.720;2.910;2023-03-01T06:05:07;18.10;;;4.38;;
55728;SDS011;41633;39.720;2.910;2023-03-01T06:07:34;17.88;;;5.40;;
55728;SDS011;41633;39.720;2.910;2023-03-01T06:10:00;19.25;;;6.20;;
55728;SDS011;41633;39.720;2.910;2023-03-01T06:14:52;16.17;;;5.38;;
55728;SDS011;41633;39.720;2.910;2023-03-01T06:17:19;19.02;;;5.20;;
55728;SDS011;41633;39.720;2.910;2023-03-01T06:19:46;16.55;;;5.63;;
55728;SDS011;41633;39.720;2.910;2023-03-01T06:22:12;17.85;;;4.97;;
55728;SDS011;41633;39.720;2.910;2023-03-01T06:24:38;14.20;;;4.97;;
55728;SDS011;41633;39.720;2.910;2023-03-01T06:27:04;16.63;;;5.63;;
55728;SDS011;41633;39.720;2.910;2023-03-01T06:29:31;16.75;;;5.63;;
55728;SDS011;41633;39.720;2.910;2023-03-01T06:31:57;14.55;;;5.78;;
55728;SDS011;41633;39.720;2.910;2023-03-01T06:34:23;18.45;;;5.88;;
55728;SDS011;41633;39.720;2.910;2023-03-01T06:36:49;13.68;;;4.90;;
55728;SDS011;41633;39.720;2.910;2023-03-01T06:39:15;17.90;;;4.78;;
55728;SDS011;41633;39.720;2.910;2023-03-01T06:41:43;15.80;;;5.22;;
55728;SDS011;41633;39.720;2.910;2023-03-01T06:46:35;18.23;;;5.72;;
55728;SDS011;41633;39.720;2.910;2023-03-01T06:49:01;12.60;;;5.15;;
55728;SDS011;41633;39.720;2.910;2023-03-01T06:51:32;15.07;;;5.00;;
55728;SDS011;41633;39.720;2.910;2023-03-01T06:53:59;12.68;;;4.72;;
55728;SDS011;41633;39.720;2.910;2023-03-01T06:56:26;16.58;;;4.68;;
55728;SDS011;41633;39.720;2.910;2023-03-01T06:58:52;17.10;;;4.80;;
55728;SDS011;41633;39.720;2.910;2023-03-01T07:01:18;16.63;;;4.93;;
55728;SDS011;41633;39.720;2.910;2023-03-01T07:06:11;16.40;;;5.20;;
55728;SDS011;41633;39.720;2.910;2023-03-01T07:08:37;16.85;;;5.55;;
55728;SDS011;41633;39.720;2.910;2023-03-01T07:11:03;16.67;;;4.38;;
55728;SDS011;41633;39.720;2.910;2023-03-01T07:13:31;13.20;;;5.07;;
55728;SDS011;41633;39.720;2.910;2023-03-01T07:15:57;15.55;;;5.38;;
55728;SDS011;41633;39.720;2.910;2023-03-01T07:18:23;13.10;;;5.85;;
55728;SDS011;41633;39.720;2.910;2023-03-01T07:20:49;11.43;;;5.03;;
55728;SDS011;41633;39.720;2.910;2023-03-01T07:23:16;14.88;;;6.07;;
55728;SDS011;41633;39.720;2.910;2023-03-01T07:25:42;14.57;;;5.80;;
55728;SDS011;41633;39.720;2.910;2023-03-01T07:28:08;13.20;;;5.45;;
55728;SDS011;41633;39.720;2.910;2023-03-01T07:30:34;15.73;;;7.03;;
55728;SDS011;41633;39.720;2.910;2023-03-01T07:33:01;15.38;;;6.72;;
55728;SDS011;41633;39.720;2.910;2023-03-01T07:35:27;14.60;;;6.05;;
55728;SDS011;41633;39.720;2.910;2023-03-01T07:37:53;13.43;;;6.32;;
55728;SDS011;41633;39.720;2.910;2023-03-01T07:40:20;13.82;;;5.57;;
55728;SDS011;41633;39.720;2.910;2023-03-01T07:42:46;13.00;;;5.25;;
55728;SDS011;41633;39.720;2.910;2023-03-01T07:45:12;14.57;;;5.20;;
55728;SDS011;41633;39.720;2.910;2023-03-01T07:47:38;13.75;;;4.60;;
55728;SDS011;41633;39.720;2.910;2023-03-01T07:50:05;13.63;;;4.10;;
55728;SDS011;41633;39.720;2.910;2023-03-01T07:52:31;17.65;;;4.90;;
55728;SDS011;41633;39.720;2.910;2023-03-01T07:54:57;11.15;;;3.88;;
55728;SDS011;41633;39.720;2.910;2023-03-01T07:57:24;14.50;;;4.00;;
55728;SDS011;41633;39.720;2.910;2023-03-01T07:59:50;10.70;;;3.45;;
55728;SDS011;41633;39.720;2.910;2023-03-01T08:02:16;11.13;;;3.78;;
55728;SDS011;41633;39.720;2.910;2023-03-01T08:04:42;16.85;;;3.90;;
55728;SDS011;41633;39.720;2.910;2023-03-01T08:07:08;15.07;;;4.35;;
55728;SDS011;41633;39.720;2.910;2023-03-01T08:09:35;11.23;;;3.72;;
55728;SDS011;41633;39.720;2.910;2023-03-01T08:12:02;16.25;;;4.97;;
55728;SDS011;41633;39.720;2.910;2023-03-01T08:14:29;13.65;;;5.40;;
55728;SDS011;41633;39.720;2.910;2023-03-01T08:16:55;16.67;;;4.50;;
55728;SDS011;41633;39.720;2.910;2023-03-01T08:19:22;11.23;;;4.30;;
55728;SDS011;41633;39.720;2.910;2023-03-01T08:21:48;14.15;;;3.42;;
55728;SDS011;41633;39.720;2.910;2023-03-01T08:24:14;11.27;;;3.70;;
55728;SDS011;41633;39.720;2.910;2023-03-01T08:26:41;13.90;;;3.30;;
55728;SDS011;41633;39.720;2.910;2023-03-01T08:29:09;13.88;;;3.22;;
55728;SDS011;41633;39.720;2.910;2023-03-01T08:31:36;8.45;;;2.78;;
55728;SDS011;41633;39.720;2.910;2023-03-01T08:34:06;12.07;;;3.05;;
55728;SDS011;41633;39.720;2.910;2023-03-01T08:36:33;10.60;;;2.90;;
55728;SDS011;41633;39.720;2.910;2023-03-01T08:39:00;11.10;;;2.80;;
55728;SDS011;41633;39.720;2.910;2023-03-01T08:41:27;9.77;;;2.53;;
55728;SDS011;41633;39.720;2.910;2023-03-01T08:43:53;14.18;;;2.75;;
55728;SDS011;41633;39.720;2.910;2023-03-01T08:46:27;9.48;;;2.28;;
55728;SDS011;41633;39.720;2.910;2023-03-01T08:48:54;7.07;;;2.58;;
55728;SDS011;41633;39.720;2.910;2023-03-01T08:51:20;7.43;;;2.55;;
55728;SDS011;41633;39.720;2.910;2023-03-01T08:53:47;8.98;;;2.88;;
55728;SDS011;41633;39.720;2.910;2023-03-01T08:58:39;8.48;;;3.00;;
55728;SDS011;41633;39.720;2.910;2023-03-01T09:01:09;9.15;;;2.97;;
55728;SDS011;41633;39.720;2.910;2023-03-01T09:03:35;8.93;;;2.30;;
55728;SDS011;41633;39.720;2.910;2023-03-01T09:08:28;7.65;;;2.22;;
55728;SDS011;41633;39.720;2.910;2023-03-01T09:13:20;7.15;;;1.85;;
55728;SDS011;41633;39.720;2.910;2023-03-01T09:15:49;7.90;;;2.35;;
55728;SDS011;41633;39.720;2.910;2023-03-01T09:18:16;10.88;;;2.25;;
55728;SDS011;41633;39.720;2.910;2023-03-01T09:20:42;10.02;;;2.17;;
55728;SDS011;41633;39.720;2.910;2023-03-01T09:23:08;8.73;;;2.80;;
55728;SDS011;41633;39.720;2.910;2023-03-01T09:25:34;7.30;;;2.78;;
55728;SDS011;41633;39.720;2.910;2023-03-01T09:30:27;8.63;;;2.05;;
55728;SDS011;41633;39.720;2.910;2023-03-01T09:32:53;12.25;;;2.75;;
55728;SDS011;41633;39.720;2.910;2023-03-01T09:37:47;8.40;;;2.17;;
55728;SDS011;41633;39.720;2.910;2023-03-01T09:40:19;10.38;;;2.50;;
55728;SDS011;41633;39.720;2.910;2023-03-01T09:42:51;9.50;;;2.80;;
55728;SDS011;41633;39.720;2.910;2023-03-01T09:45:22;10.60;;;2.55;;
55728;SDS011;41633;39.720;2.910;2023-03-01T09:47:50;8.23;;;2.40;;
55728;SDS011;41633;39.720;2.910;2023-03-01T09:55:25;9.15;;;2.15;;
55728;SDS011;41633;39.720;2.910;2023-03-01T09:58:00;9.40;;;2.38;;
55728;SDS011;41633;39.720;2.910;2023-03-01T10:00:44;9.98;;;2.78;;
55728;SDS011;41633;39.720;2.910;2023-03-01T10:08:28;11.00;;;2.50;;
55728;SDS011;41633;39.720;2.910;2023-03-01T10:10:58;11.75;;;2.53;;
55728;SDS011;41633;39.720;2.910;2023-03-01T10:13:29;10.90;;;2.30;;
55728;SDS011;41633;39.720;2.910;2023-03-01T10:16:01;8.50;;;2.20;;
55728;SDS011;41633;39.720;2.910;2023-03-01T10:18:30;8.80;;;2.13;;
55728;SDS011;41633;39.720;2.910;2023-03-01T10:21:13;6.43;;;2.00;;
55728;SDS011;41633;39.720;2.910;2023-03-01T10:23:40;5.53;;;1.65;;
55728;SDS011;41633;39.720;2.910;2023-03-01T10:26:12;5.82;;;1.80;;
55728;SDS011;41633;39.720;2.910;2023-03-01T10:31:18;10.90;;;2.25;;
55728;SDS011;41633;39.720;2.910;2023-03-01T10:33:45;8.80;;;2.15;;
55728;SDS011;41633;39.720;2.910;2023-03-01T10:36:13;6.85;;;2.17;;
55728;SDS011;41633;39.720;2.910;2023-03-01T10:41:06;9.52;;;2.20;;
55728;SDS011;41633;39.720;2.910;2023-03-01T10:43:54;7.00;;;2.45;;
55728;SDS011;41633;39.720;2.910;2023-03-01T10:46:32;9.27;;;2.35;;
55728;SDS011;41633;39.720;2.910;2023-03-01T10:51:45;6.50;;;2.00;;
55728;SDS011;41633;39.720;2.910;2023-03-01T10:56:50;6.97;;;1.77;;
55728;SDS011;41633;39.720;2.910;2023-03-01T10:59:32;7.65;;;2.05;;
55728;SDS011;41633;39.720;2.910;2023-03-01T11:07:29;8.23;;;2.00;;
55728;SDS011;41633;39.720;2.910;2023-03-01T11:09:55;8.52;;;3.20;;
55728;SDS011;41633;39.720;2.910;2023-03-01T11:12:21;12.90;;;5.60;;
55728;SDS011;41633;39.720;2.910;2023-03-01T11:14:51;13.02;;;5.15;;
55728;SDS011;41633;39.720;2.910;2023-03-01T11:17:23;7.82;;;2.85;;
55728;SDS011;41633;39.720;2.910;2023-03-01T11:20:51;7.57;;;2.50;;
55728;SDS011;41633;39.720;2.910;2023-03-01T11:25:19;8.82;;;3.25;;
55728;SDS011;41633;39.720;2.910;2023-03-01T11:27:45;8.65;;;2.72;;
55728;SDS011;41633;39.720;2.910;2023-03-01T11:30:16;8.00;;;2.40;;
55728;SDS011;41633;39.720;2.910;2023-03-01T11:32:53;5.93;;;2.03;;
55728;SDS011;41633;39.720;2.910;2023-03-01T11:35:21;7.05;;;2.20;;
55728;SDS011;41633;39.720;2.910;2023-03-01T11:40:29;8.70;;;2.58;;
55728;SDS011;41633;39.720;2.910;2023-03-01T11:45:26;9.02;;;2.17;;
55728;SDS011;41633;39.720;2.910;2023-03-01T11:50:48;7.53;;;2.22;;
55728;SDS011;41633;39.720;2.910;2023-03-01T11:58:53;6.97;;;2.40;;
55728;SDS011;41633;39.720;2.910;2023-03-01T12:01:26;10.30;;;4.10;;
55728;SDS011;41633;39.720;2.910;2023-03-01T12:17:28;6.82;;;2.15;;
55728;SDS011;41633;39.720;2.910;2023-03-01T12:25:21;7.43;;;2.10;;
55728;SDS011;41633;39.720;2.910;2023-03-01T12:38:46;8.30;;;2.33;;
55728;SDS011;41633;39.720;2.910;2023-03-01T12:52:01;7.93;;;2.20;;
55728;SDS011;41633;39.720;2.910;2023-03-01T12:54:31;7.50;;;2.63;;
55728;SDS011;41633;39.720;2.910;2023-03-01T12:57:11;6.70;;;2.30;;
55728;SDS011;41633;39.720;2.910;2023-03-01T13:00:02;7.20;;;2.13;;
55728;SDS011;41633;39.720;2.910;2023-03-01T13:02:33;9.48;;;2.50;;
55728;SDS011;41633;39.720;2.910;2023-03-01T13:10:02;6.22;;;2.22;;
55728;SDS011;41633;39.720;2.910;2023-03-01T13:17:56;7.47;;;2.33;;
55728;SDS011;41633;39.720;2.910;2023-03-01T13:20:24;9.55;;;2.53;;
55728;SDS011;41633;39.720;2.910;2023-03-01T13:23:02;8.60;;;2.67;;
55728;SDS011;41633;39.720;2.910;2023-03-01T13:25:29;7.05;;;2.03;;
55728;SDS011;41633;39.720;2.910;2023-03-01T13:31:05;7.80;;;2.42;;
55728;SDS011;41633;39.720;2.910;2023-03-01T13:36:01;7.88;;;2.25;;
55728;SDS011;41633;39.720;2.910;2023-03-01T13:38:46;7.35;;;2.30;;
55728;SDS011;41633;39.720;2.910;2023-03-01T13:41:17;6.17;;;2.23;;
55728;SDS011;41633;39.720;2.910;2023-03-01T13:43:44;6.63;;;2.45;;
55728;SDS011;41633;39.720;2.910;2023-03-01T13:46:16;7.25;;;2.15;;
55728;SDS011;41633;39.720;2.910;2023-03-01T13:48:44;7.13;;;2.38;;
55728;SDS011;41633;39.720;2.910;2023-03-01T13:51:11;9.27;;;3.00;;
55728;SDS011;41633;39.720;2.910;2023-03-01T13:53:45;7.00;;;1.85;;
55728;SDS011;41633;39.720;2.910;2023-03-01T13:56:15;10.02;;;2.72;;
55728;SDS011;41633;39.720;2.910;2023-03-01T13:58:50;6.60;;;2.40;;
55728;SDS011;41633;39.720;2.910;2023-03-01T14:03:47;6.90;;;2.20;;
55728;SDS011;41633;39.720;2.910;2023-03-01T14:06:17;7.53;;;2.35;;
55728;SDS011;41633;39.720;2.910;2023-03-01T14:08:46;7.72;;;2.60;;
55728;SDS011;41633;39.720;2.910;2023-03-01T14:11:32;9.60;;;3.45;;
55728;SDS011;41633;39.720;2.910;2023-03-01T14:21:31;8.57;;;2.97;;
55728;SDS011;41633;39.720;2.910;2023-03-01T14:23:58;7.30;;;2.42;;
55728;SDS011;41633;39.720;2.910;2023-03-01T14:26:24;7.63;;;2.35;;
55728;SDS011;41633;39.720;2.910;2023-03-01T14:28:50;10.23;;;3.22;;
55728;SDS011;41633;39.720;2.910;2023-03-01T14:31:34;8.50;;;2.92;;
55728;SDS011;41633;39.720;2.910;2023-03-01T14:34:00;8.32;;;2.97;;
55728;SDS011;41633;39.720;2.910;2023-03-01T14:36:28;10.27;;;3.40;;
55728;SDS011;41633;39.720;2.910;2023-03-01T14:38:54;8.93;;;3.15;;
55728;SDS011;41633;39.720;2.910;2023-03-01T14:41:24;9.63;;;3.20;;
55728;SDS011;41633;39.720;2.910;2023-03-01T14:46:21;8.98;;;2.78;;
55728;SDS011;41633;39.720;2.910;2023-03-01T14:48:56;12.02;;;2.88;;
55728;SDS011;41633;39.720;2.910;2023-03-01T14:51:23;9.68;;;3.67;;
55728;SDS011;41633;39.720;2.910;2023-03-01T14:53:50;9.27;;;3.85;;
55728;SDS011;41633;39.720;2.910;2023-03-01T14:56:16;9.35;;;4.25;;
55728;SDS011;41633;39.720;2.910;2023-03-01T14:58:44;10.10;;;4.38;;
55728;SDS011;41633;39.720;2.910;2023-03-01T15:01:15;9.05;;;3.60;;
55728;SDS011;41633;39.720;2.910;2023-03-01T15:03:46;11.57;;;4.72;;
55728;SDS011;41633;39.720;2.910;2023-03-01T15:06:17;10.05;;;2.85;;
55728;SDS011;41633;39.720;2.910;2023-03-01T15:08:51;8.95;;;2.58;;
55728;SDS011;41633;39.720;2.910;2023-03-01T15:11:27;10.60;;;5.28;;
55728;SDS011;41633;39.720;2.910;2023-03-01T15:13:53;8.60;;;2.80;;
55728;SDS011;41633;39.720;2.910;2023-03-01T15:16:23;8.68;;;2.55;;
55728;SDS011;41633;39.720;2.910;2023-03-01T15:18:51;8.95;;;3.75;;
55728;SDS011;41633;39.720;2.910;2023-03-01T15:21:22;10.15;;;3.65;;
55728;SDS011;41633;39.720;2.910;2023-03-01T15:23:53;8.10;;;3.05;;
55728;SDS011;41633;39.720;2.910;2023-03-01T15:28:50;7.75;;;2.42;;
55728;SDS011;41633;39.720;2.910;2023-03-01T15:31:18;8.38;;;2.55;;
55728;SDS011;41633;39.720;2.910;2023-03-01T15:33:46;9.40;;;2.08;;
55728;SDS011;41633;39.720;2.910;2023-03-01T15:36:32;9.35;;;3.28;;
55728;SDS011;41633;39.720;2.910;2023-03-01T15:44:16;6.18;;;1.30;;
55728;SDS011;41633;39.720;2.910;2023-03-01T15:46:47;4.28;;;1.15;;
55728;SDS011;41633;39.720;2.910;2023-03-01T15:51:58;7.32;;;1.90;;
55728;SDS011;41633;39.720;2.910;2023-03-01T15:54:25;6.15;;;1.83;;
55728;SDS011;41633;39.720;2.910;2023-03-01T15:56:52;4.35;;;1.55;;
55728;SDS011;41633;39.720;2.910;2023-03-01T15:59:18;6.90;;;2.30;;
55728;SDS011;41633;39.720;2.910;2023-03-01T16:01:45;7.40;;;1.70;;
55728;SDS011;41633;39.720;2.910;2023-03-01T16:04:14;10.65;;;4.03;;
55728;SDS011;41633;39.720;2.910;2023-03-01T16:06:48;6.30;;;1.98;;
55728;SDS011;41633;39.720;2.910;2023-03-01T16:09:19;11.07;;;5.32;;
55728;SDS011;41633;39.720;2.910;2023-03-01T16:11:46;10.05;;;4.20;;
55728;SDS011;41633;39.720;2.910;2023-03-01T16:14:13;8.40;;;2.38;;
55728;SDS011;41633;39.720;2.910;2023-03-01T16:16:39;9.25;;;3.78;;
55728;SDS011;41633;39.720;2.910;2023-03-01T16:19:06;7.70;;;2.38;;
55728;SDS011;41633;39.720;2.910;2023-03-01T16:21:32;8.82;;;3.10;;
55728;SDS011;41633;39.720;2.910;2023-03-01T16:23:58;9.00;;;3.85;;
55728;SDS011;41633;39.720;2.910;2023-03-01T16:26:25;7.38;;;2.58;;
55728;SDS011;41633;39.720;2.910;2023-03-01T16:28:53;9.48;;;2.47;;
55728;SDS011;41633;39.720;2.910;2023-03-01T16:31:20;7.85;;;2.83;;
55728;SDS011;41633;39.720;2.910;2023-03-01T16:33:46;8.18;;;2.15;;
55728;SDS011;41633;39.720;2.910;2023-03-01T16:36:15;9.60;;;3.53;;
55728;SDS011;41633;39.720;2.910;2023-03-01T16:38:41;12.07;;;3.33;;
55728;SDS011;41633;39.720;2.910;2023-03-01T16:41:11;8.38;;;2.90;;
55728;SDS011;41633;39.720;2.910;2023-03-01T16:43:38;7.90;;;2.63;;
55728;SDS011;41633;39.720;2.910;2023-03-01T16:46:37;6.90;;;1.80;;
55728;SDS011;41633;39.720;2.910;2023-03-01T16:48:57;11.65;;;2.80;;
55728;SDS011;41633;39.720;2.910;2023-03-01T16:51:23;7.82;;;2.25;;
55728;SDS011;41633;39.720;2.910;2023-03-01T16:53:50;7.10;;;2.10;;
55728;SDS011;41633;39.720;2.910;2023-03-01T16:56:17;8.32;;;2.40;;
55728;SDS011;41633;39.720;2.910;2023-03-01T16:58:43;9.35;;;3.67;;
55728;SDS011;41633;39.720;2.910;2023-03-01T17:01:10;10.95;;;3.92;;
55728;SDS011;41633;39.720;2.910;2023-03-01T17:03:37;9.70;;;4.80;;
55728;SDS011;41633;39.720;2.910;2023-03-01T17:06:04;9.10;;;2.20;;
55728;SDS011;41633;39.720;2.910;2023-03-01T17:08:31;10.13;;;3.75;;
55728;SDS011;41633;39.720;2.910;2023-03-01T17:11:04;8.95;;;3.60;;
55728;SDS011;41633;39.720;2.910;2023-03-01T17:13:31;14.65;;;8.57;;
55728;SDS011;41633;39.720;2.910;2023-03-01T17:18:23;10.07;;;2.58;;
55728;SDS011;41633;39.720;2.910;2023-03-01T17:20:49;11.77;;;4.63;;
55728;SDS011;41633;39.720;2.910;2023-03-01T17:25:44;8.23;;;3.05;;
55728;SDS011;41633;39.720;2.910;2023-03-01T17:28:11;12.27;;;4.50;;
55728;SDS011;41633;39.720;2.910;2023-03-01T17:30:42;11.35;;;4.55;;
55728;SDS011;41633;39.720;2.910;2023-03-01T17:33:09;10.40;;;5.15;;